Aviation Digital Data Service (ADDS)

Output produced by METARs form (2210 UTC 06 July 2015)
found at http://aviationweather.gov/adds/metars/
 
KAND 061735Z 0618/0718 23008KT P6SM SCT040 SCT210 
     FM062000 23006KT P6SM VCTS BKN045CB 
     FM062200 24005KT P6SM SCT045 
     FM062300 24004KT P6SM FEW250